sensor_id;sensor_type;location;lat;lon;timestamp;P1;durP1;ratioP1;P2;durP2;ratioP2
73951;SDS011;62304;47.662;18.324;2023-10-09T00:02:16;5.68;;;1.37;;
73951;SDS011;62304;47.662;18.324;2023-10-09T00:05:19;5.10;;;1.67;;
73951;SDS011;62304;47.662;18.324;2023-10-09T00:08:43;5.77;;;1.60;;
73951;SDS011;62304;47.662;18.324;2023-10-09T00:11:47;6.00;;;1.60;;
73951;SDS011;62304;47.662;18.324;2023-10-09T00:14:50;4.00;;;1.33;;
73951;SDS011;62304;47.662;18.324;2023-10-09T00:17:59;5.03;;;1.40;;
73951;SDS011;62304;47.662;18.324;2023-10-09T00:21:02;6.40;;;1.50;;
73951;SDS011;62304;47.662;18.324;2023-10-09T00:24:16;5.63;;;1.67;;
73951;SDS011;62304;47.662;18.324;2023-10-09T00:27:26;7.30;;;2.33;;
73951;SDS011;62304;47.662;18.324;2023-10-09T00:30:34;6.68;;;1.83;;
73951;SDS011;62304;47.662;18.324;2023-10-09T00:33:38;5.22;;;1.98;;
73951;SDS011;62304;47.662;18.324;2023-10-09T00:36:41;5.43;;;1.60;;
73951;SDS011;62304;47.662;18.324;2023-10-09T00:39:53;6.60;;;1.73;;
73951;SDS011;62304;47.662;18.324;2023-10-09T00:42:59;7.53;;;1.70;;
73951;SDS011;62304;47.662;18.324;2023-10-09T00:46:08;5.70;;;1.90;;
73951;SDS011;62304;47.662;18.324;2023-10-09T00:49:15;5.57;;;1.50;;
73951;SDS011;62304;47.662;18.324;2023-10-09T00:52:18;5.55;;;1.80;;
73951;SDS011;62304;47.662;18.324;2023-10-09T00:55:31;6.53;;;1.80;;
73951;SDS011;62304;47.662;18.324;2023-10-09T00:58:48;7.97;;;1.70;;
73951;SDS011;62304;47.662;18.324;2023-10-09T01:01:58;6.07;;;1.58;;
73951;SDS011;62304;47.662;18.324;2023-10-09T01:05:08;5.75;;;1.87;;
73951;SDS011;62304;47.662;18.324;2023-10-09T01:08:22;6.75;;;1.92;;
73951;SDS011;62304;47.662;18.324;2023-10-09T01:11:33;5.73;;;1.67;;
73951;SDS011;62304;47.662;18.324;2023-10-09T01:14:37;5.37;;;1.58;;
73951;SDS011;62304;47.662;18.324;2023-10-09T01:17:40;4.57;;;1.60;;
73951;SDS011;62304;47.662;18.324;2023-10-09T01:20:48;6.55;;;1.95;;
73951;SDS011;62304;47.662;18.324;2023-10-09T01:23:52;4.55;;;1.62;;
73951;SDS011;62304;47.662;18.324;2023-10-09T01:27:07;4.63;;;1.50;;
73951;SDS011;62304;47.662;18.324;2023-10-09T01:30:18;5.18;;;1.80;;
73951;SDS011;62304;47.662;18.324;2023-10-09T01:33:23;6.95;;;2.10;;
73951;SDS011;62304;47.662;18.324;2023-10-09T01:36:26;4.70;;;1.85;;
73951;SDS011;62304;47.662;18.324;2023-10-09T01:39:35;6.80;;;1.92;;
73951;SDS011;62304;47.662;18.324;2023-10-09T01:42:43;5.07;;;1.50;;
73951;SDS011;62304;47.662;18.324;2023-10-09T01:45:49;5.15;;;1.50;;
73951;SDS011;62304;47.662;18.324;2023-10-09T01:48:54;6.25;;;1.77;;
73951;SDS011;62304;47.662;18.324;2023-10-09T01:51:57;4.50;;;1.20;;
73951;SDS011;62304;47.662;18.324;2023-10-09T01:55:05;7.35;;;2.35;;
73951;SDS011;62304;47.662;18.324;2023-10-09T01:58:10;6.67;;;1.73;;
73951;SDS011;62304;47.662;18.324;2023-10-09T02:01:29;5.57;;;1.67;;
73951;SDS011;62304;47.662;18.324;2023-10-09T02:04:35;6.82;;;1.90;;
73951;SDS011;62304;47.662;18.324;2023-10-09T02:07:37;4.68;;;1.50;;
73951;SDS011;62304;47.662;18.324;2023-10-09T02:10:47;5.70;;;1.80;;
73951;SDS011;62304;47.662;18.324;2023-10-09T02:13:51;5.33;;;1.93;;
73951;SDS011;62304;47.662;18.324;2023-10-09T02:17:04;10.25;;;3.58;;
73951;SDS011;62304;47.662;18.324;2023-10-09T02:20:12;14.60;;;5.30;;
73951;SDS011;62304;47.662;18.324;2023-10-09T02:23:20;18.17;;;7.57;;
73951;SDS011;62304;47.662;18.324;2023-10-09T02:26:33;50.85;;;18.37;;
73951;SDS011;62304;47.662;18.324;2023-10-09T02:29:42;13.57;;;4.10;;
73951;SDS011;62304;47.662;18.324;2023-10-09T02:32:45;7.80;;;3.25;;
73951;SDS011;62304;47.662;18.324;2023-10-09T02:35:55;8.90;;;3.03;;
73951;SDS011;62304;47.662;18.324;2023-10-09T02:39:02;10.55;;;3.00;;
73951;SDS011;62304;47.662;18.324;2023-10-09T02:42:08;9.18;;;3.33;;
73951;SDS011;62304;47.662;18.324;2023-10-09T02:45:28;12.03;;;3.80;;
73951;SDS011;62304;47.662;18.324;2023-10-09T02:48:37;8.90;;;3.97;;
73951;SDS011;62304;47.662;18.324;2023-10-09T02:51:46;10.88;;;3.75;;
73951;SDS011;62304;47.662;18.324;2023-10-09T02:54:56;8.45;;;3.22;;
73951;SDS011;62304;47.662;18.324;2023-10-09T02:58:02;10.20;;;3.10;;
73951;SDS011;62304;47.662;18.324;2023-10-09T03:01:13;7.90;;;3.20;;
73951;SDS011;62304;47.662;18.324;2023-10-09T03:04:16;8.35;;;2.53;;
73951;SDS011;62304;47.662;18.324;2023-10-09T03:07:22;10.07;;;4.22;;
73951;SDS011;62304;47.662;18.324;2023-10-09T03:10:26;6.75;;;2.83;;
73951;SDS011;62304;47.662;18.324;2023-10-09T03:13:30;9.07;;;2.90;;
73951;SDS011;62304;47.662;18.324;2023-10-09T03:16:36;8.57;;;3.03;;
73951;SDS011;62304;47.662;18.324;2023-10-09T03:19:39;9.07;;;3.15;;
73951;SDS011;62304;47.662;18.324;2023-10-09T03:22:46;9.02;;;3.00;;
73951;SDS011;62304;47.662;18.324;2023-10-09T03:25:50;16.83;;;4.70;;
73951;SDS011;62304;47.662;18.324;2023-10-09T03:28:53;21.93;;;6.47;;
73951;SDS011;62304;47.662;18.324;2023-10-09T03:31:57;13.50;;;4.30;;
73951;SDS011;62304;47.662;18.324;2023-10-09T03:35:03;13.40;;;4.47;;
73951;SDS011;62304;47.662;18.324;2023-10-09T03:38:09;11.55;;;4.65;;
73951;SDS011;62304;47.662;18.324;2023-10-09T03:41:18;15.43;;;6.07;;
73951;SDS011;62304;47.662;18.324;2023-10-09T03:44:22;13.30;;;4.90;;
73951;SDS011;62304;47.662;18.324;2023-10-09T03:47:26;10.43;;;3.50;;
73951;SDS011;62304;47.662;18.324;2023-10-09T03:50:30;11.88;;;4.55;;
73951;SDS011;62304;47.662;18.324;2023-10-09T03:53:39;9.68;;;3.58;;
73951;SDS011;62304;47.662;18.324;2023-10-09T03:56:42;9.80;;;3.83;;
73951;SDS011;62304;47.662;18.324;2023-10-09T03:59:45;6.63;;;2.70;;
73951;SDS011;62304;47.662;18.324;2023-10-09T04:02:57;7.63;;;2.60;;
73951;SDS011;62304;47.662;18.324;2023-10-09T04:06:02;7.12;;;2.33;;
73951;SDS011;62304;47.662;18.324;2023-10-09T04:09:07;8.40;;;2.90;;
73951;SDS011;62304;47.662;18.324;2023-10-09T04:12:23;14.05;;;4.70;;
73951;SDS011;62304;47.662;18.324;2023-10-09T04:15:28;14.17;;;4.27;;
73951;SDS011;62304;47.662;18.324;2023-10-09T04:18:33;11.90;;;4.00;;
73951;SDS011;62304;47.662;18.324;2023-10-09T04:21:41;12.10;;;3.70;;
73951;SDS011;62304;47.662;18.324;2023-10-09T04:24:44;12.07;;;3.87;;
73951;SDS011;62304;47.662;18.324;2023-10-09T04:27:54;15.95;;;4.60;;
73951;SDS011;62304;47.662;18.324;2023-10-09T04:31:33;12.10;;;3.50;;
73951;SDS011;62304;47.662;18.324;2023-10-09T04:34:40;7.93;;;2.20;;
73951;SDS011;62304;47.662;18.324;2023-10-09T04:37:51;7.55;;;2.20;;
73951;SDS011;62304;47.662;18.324;2023-10-09T04:40:54;5.60;;;1.52;;
73951;SDS011;62304;47.662;18.324;2023-10-09T04:44:02;5.85;;;1.90;;
73951;SDS011;62304;47.662;18.324;2023-10-09T04:47:20;7.43;;;2.40;;
73951;SDS011;62304;47.662;18.324;2023-10-09T04:50:28;6.17;;;1.93;;
73951;SDS011;62304;47.662;18.324;2023-10-09T04:53:31;6.00;;;1.70;;
73951;SDS011;62304;47.662;18.324;2023-10-09T04:56:42;7.97;;;1.40;;
73951;SDS011;62304;47.662;18.324;2023-10-09T05:00:06;8.02;;;2.30;;
73951;SDS011;62304;47.662;18.324;2023-10-09T05:03:25;5.50;;;1.63;;
73951;SDS011;62304;47.662;18.324;2023-10-09T05:06:32;6.80;;;1.80;;
73951;SDS011;62304;47.662;18.324;2023-10-09T05:09:58;5.10;;;1.77;;
73951;SDS011;62304;47.662;18.324;2023-10-09T05:13:20;5.60;;;1.37;;
73951;SDS011;62304;47.662;18.324;2023-10-09T05:16:44;4.70;;;1.50;;
73951;SDS011;62304;47.662;18.324;2023-10-09T05:19:57;7.23;;;1.53;;
73951;SDS011;62304;47.662;18.324;2023-10-09T05:23:20;4.13;;;1.10;;
73951;SDS011;62304;47.662;18.324;2023-10-09T05:26:25;6.45;;;1.37;;
73951;SDS011;62304;47.662;18.324;2023-10-09T05:29:51;4.87;;;1.00;;
73951;SDS011;62304;47.662;18.324;2023-10-09T05:33:15;7.50;;;1.23;;
73951;SDS011;62304;47.662;18.324;2023-10-09T05:36:31;7.67;;;1.53;;
73951;SDS011;62304;47.662;18.324;2023-10-09T05:39:36;5.13;;;1.30;;
73951;SDS011;62304;47.662;18.324;2023-10-09T05:42:45;7.47;;;1.25;;
73951;SDS011;62304;47.662;18.324;2023-10-09T05:46:00;5.80;;;1.67;;
73951;SDS011;62304;47.662;18.324;2023-10-09T05:49:18;3.65;;;0.82;;
73951;SDS011;62304;47.662;18.324;2023-10-09T05:52:28;4.60;;;1.43;;
73951;SDS011;62304;47.662;18.324;2023-10-09T05:55:35;5.63;;;1.17;;
73951;SDS011;62304;47.662;18.324;2023-10-09T05:58:57;5.57;;;1.10;;
73951;SDS011;62304;47.662;18.324;2023-10-09T06:02:06;5.85;;;1.10;;
73951;SDS011;62304;47.662;18.324;2023-10-09T06:05:28;3.53;;;0.90;;
73951;SDS011;62304;47.662;18.324;2023-10-09T06:08:43;5.03;;;0.70;;
73951;SDS011;62304;47.662;18.324;2023-10-09T06:11:48;2.87;;;0.67;;
73951;SDS011;62304;47.662;18.324;2023-10-09T06:14:52;4.15;;;1.20;;
73951;SDS011;62304;47.662;18.324;2023-10-09T06:18:08;7.10;;;1.62;;
73951;SDS011;62304;47.662;18.324;2023-10-09T06:21:34;4.97;;;1.10;;
73951;SDS011;62304;47.662;18.324;2023-10-09T06:24:58;4.90;;;0.70;;
73951;SDS011;62304;47.662;18.324;2023-10-09T06:28:11;5.47;;;1.13;;
73951;SDS011;62304;47.662;18.324;2023-10-09T06:31:16;3.80;;;0.70;;
73951;SDS011;62304;47.662;18.324;2023-10-09T06:34:52;7.50;;;1.12;;
73951;SDS011;62304;47.662;18.324;2023-10-09T06:38:20;3.92;;;0.98;;
73951;SDS011;62304;47.662;18.324;2023-10-09T06:41:24;3.13;;;0.70;;
73951;SDS011;62304;47.662;18.324;2023-10-09T06:44:41;3.73;;;1.03;;
73951;SDS011;62304;47.662;18.324;2023-10-09T06:47:56;5.45;;;1.27;;
73951;SDS011;62304;47.662;18.324;2023-10-09T06:51:11;2.72;;;0.60;;
73951;SDS011;62304;47.662;18.324;2023-10-09T06:54:27;2.92;;;0.82;;
73951;SDS011;62304;47.662;18.324;2023-10-09T06:57:40;5.03;;;1.33;;
73951;SDS011;62304;47.662;18.324;2023-10-09T07:00:55;5.23;;;1.17;;
73951;SDS011;62304;47.662;18.324;2023-10-09T07:04:02;4.85;;;0.90;;
73951;SDS011;62304;47.662;18.324;2023-10-09T07:07:24;3.62;;;1.08;;
73951;SDS011;62304;47.662;18.324;2023-10-09T07:10:27;4.45;;;1.27;;
73951;SDS011;62304;47.662;18.324;2023-10-09T07:13:35;6.43;;;1.20;;
73951;SDS011;62304;47.662;18.324;2023-10-09T07:16:39;4.10;;;0.80;;
73951;SDS011;62304;47.662;18.324;2023-10-09T07:20:00;3.95;;;0.70;;
73951;SDS011;62304;47.662;18.324;2023-10-09T07:23:15;3.37;;;1.05;;
73951;SDS011;62304;47.662;18.324;2023-10-09T07:26:20;6.15;;;1.75;;
73951;SDS011;62304;47.662;18.324;2023-10-09T07:29:29;5.30;;;1.70;;
73951;SDS011;62304;47.662;18.324;2023-10-09T07:32:32;5.00;;;1.17;;
73951;SDS011;62304;47.662;18.324;2023-10-09T07:35:35;4.70;;;1.75;;
73951;SDS011;62304;47.662;18.324;2023-10-09T07:38:46;4.50;;;1.23;;
73951;SDS011;62304;47.662;18.324;2023-10-09T07:41:57;4.68;;;1.08;;
73951;SDS011;62304;47.662;18.324;2023-10-09T07:45:17;4.20;;;1.20;;
73951;SDS011;62304;47.662;18.324;2023-10-09T07:48:24;7.00;;;1.10;;
73951;SDS011;62304;47.662;18.324;2023-10-09T07:51:41;6.57;;;0.90;;
73951;SDS011;62304;47.662;18.324;2023-10-09T07:54:50;7.95;;;1.08;;
73951;SDS011;62304;47.662;18.324;2023-10-09T07:57:55;3.78;;;0.70;;
73951;SDS011;62304;47.662;18.324;2023-10-09T08:01:00;5.50;;;1.00;;
73951;SDS011;62304;47.662;18.324;2023-10-09T08:04:09;4.87;;;1.23;;
73951;SDS011;62304;47.662;18.324;2023-10-09T08:07:17;5.20;;;0.90;;
73951;SDS011;62304;47.662;18.324;2023-10-09T08:10:48;3.10;;;0.77;;
73951;SDS011;62304;47.662;18.324;2023-10-09T08:14:26;7.00;;;1.02;;
73951;SDS011;62304;47.662;18.324;2023-10-09T08:17:38;5.33;;;1.17;;
73951;SDS011;62304;47.662;18.324;2023-10-09T08:20:41;2.77;;;0.50;;
73951;SDS011;62304;47.662;18.324;2023-10-09T08:24:13;3.97;;;0.80;;
73951;SDS011;62304;47.662;18.324;2023-10-09T08:27:44;8.25;;;0.90;;
73951;SDS011;62304;47.662;18.324;2023-10-09T08:30:57;7.60;;;1.45;;
73951;SDS011;62304;47.662;18.324;2023-10-09T08:34:06;4.57;;;1.23;;
73951;SDS011;62304;47.662;18.324;2023-10-09T08:37:15;2.67;;;0.63;;
73951;SDS011;62304;47.662;18.324;2023-10-09T08:40:21;3.55;;;0.90;;
73951;SDS011;62304;47.662;18.324;2023-10-09T08:43:33;5.18;;;1.15;;
73951;SDS011;62304;47.662;18.324;2023-10-09T08:46:41;3.22;;;0.70;;
73951;SDS011;62304;47.662;18.324;2023-10-09T08:49:45;4.83;;;1.30;;
73951;SDS011;62304;47.662;18.324;2023-10-09T08:52:48;5.20;;;1.20;;
73951;SDS011;62304;47.662;18.324;2023-10-09T08:55:52;4.50;;;1.20;;
73951;SDS011;62304;47.662;18.324;2023-10-09T08:58:57;4.95;;;1.17;;
73951;SDS011;62304;47.662;18.324;2023-10-09T09:02:02;5.28;;;1.10;;
73951;SDS011;62304;47.662;18.324;2023-10-09T09:05:21;3.40;;;1.00;;
73951;SDS011;62304;47.662;18.324;2023-10-09T09:08:27;3.20;;;0.80;;
73951;SDS011;62304;47.662;18.324;2023-10-09T09:11:32;5.35;;;1.20;;
73951;SDS011;62304;47.662;18.324;2023-10-09T09:14:51;3.30;;;1.15;;
73951;SDS011;62304;47.662;18.324;2023-10-09T09:18:04;5.20;;;1.30;;
73951;SDS011;62304;47.662;18.324;2023-10-09T09:21:18;8.73;;;1.37;;
73951;SDS011;62304;47.662;18.324;2023-10-09T09:24:25;5.60;;;1.77;;
73951;SDS011;62304;47.662;18.324;2023-10-09T09:27:44;3.25;;;0.98;;
73951;SDS011;62304;47.662;18.324;2023-10-09T09:31:07;4.43;;;1.20;;
73951;SDS011;62304;47.662;18.324;2023-10-09T09:34:18;6.85;;;1.55;;
73951;SDS011;62304;47.662;18.324;2023-10-09T09:37:28;3.27;;;1.07;;
73951;SDS011;62304;47.662;18.324;2023-10-09T09:40:32;5.23;;;1.23;;
73951;SDS011;62304;47.662;18.324;2023-10-09T09:43:43;3.17;;;0.77;;
73951;SDS011;62304;47.662;18.324;2023-10-09T09:46:49;3.83;;;1.05;;
73951;SDS011;62304;47.662;18.324;2023-10-09T09:49:56;6.15;;;1.27;;
73951;SDS011;62304;47.662;18.324;2023-10-09T09:53:03;4.93;;;1.60;;
73951;SDS011;62304;47.662;18.324;2023-10-09T09:56:10;5.73;;;1.10;;
73951;SDS011;62304;47.662;18.324;2023-10-09T09:59:20;4.53;;;1.23;;
73951;SDS011;62304;47.662;18.324;2023-10-09T10:02:30;5.20;;;1.30;;
73951;SDS011;62304;47.662;18.324;2023-10-09T10:05:38;6.28;;;1.00;;
73951;SDS011;62304;47.662;18.324;2023-10-09T10:08:47;6.27;;;1.07;;
73951;SDS011;62304;47.662;18.324;2023-10-09T10:11:54;3.90;;;1.20;;
73951;SDS011;62304;47.662;18.324;2023-10-09T10:14:57;3.53;;;1.40;;
73951;SDS011;62304;47.662;18.324;2023-10-09T10:18:31;6.50;;;1.30;;
73951;SDS011;62304;47.662;18.324;2023-10-09T10:21:35;3.58;;;0.90;;
73951;SDS011;62304;47.662;18.324;2023-10-09T10:24:45;4.30;;;1.10;;
73951;SDS011;62304;47.662;18.324;2023-10-09T10:31:51;4.53;;;1.50;;
73951;SDS011;62304;47.662;18.324;2023-10-09T10:34:54;5.03;;;1.37;;
73951;SDS011;62304;47.662;18.324;2023-10-09T10:41:55;4.03;;;1.20;;
73951;SDS011;62304;47.662;18.324;2023-10-09T10:45:01;3.37;;;0.80;;
73951;SDS011;62304;47.662;18.324;2023-10-09T10:48:05;4.35;;;1.05;;
73951;SDS011;62304;47.662;18.324;2023-10-09T10:51:13;4.47;;;0.90;;
73951;SDS011;62304;47.662;18.324;2023-10-09T10:54:26;6.65;;;1.27;;
73951;SDS011;62304;47.662;18.324;2023-10-09T10:57:36;5.40;;;1.30;;
73951;SDS011;62304;47.662;18.324;2023-10-09T11:00:57;3.83;;;0.90;;
73951;SDS011;62304;47.662;18.324;2023-10-09T11:04:09;5.07;;;1.00;;
73951;SDS011;62304;47.662;18.324;2023-10-09T11:07:16;4.07;;;1.02;;
73951;SDS011;62304;47.662;18.324;2023-10-09T11:10:27;5.50;;;1.35;;
73951;SDS011;62304;47.662;18.324;2023-10-09T11:13:31;3.23;;;0.90;;
73951;SDS011;62304;47.662;18.324;2023-10-09T11:16:37;9.20;;;1.37;;
73951;SDS011;62304;47.662;18.324;2023-10-09T11:19:52;5.50;;;1.40;;
73951;SDS011;62304;47.662;18.324;2023-10-09T11:22:56;4.05;;;1.30;;
73951;SDS011;62304;47.662;18.324;2023-10-09T11:26:14;6.95;;;1.37;;
73951;SDS011;62304;47.662;18.324;2023-10-09T11:29:34;4.77;;;1.33;;
73951;SDS011;62304;47.662;18.324;2023-10-09T11:32:47;4.87;;;1.37;;
73951;SDS011;62304;47.662;18.324;2023-10-09T11:35:54;6.70;;;2.03;;
73951;SDS011;62304;47.662;18.324;2023-10-09T11:39:04;4.93;;;1.40;;
73951;SDS011;62304;47.662;18.324;2023-10-09T11:42:36;6.97;;;1.67;;
73951;SDS011;62304;47.662;18.324;2023-10-09T11:45:51;3.70;;;1.40;;
73951;SDS011;62304;47.662;18.324;2023-10-09T11:49:04;7.57;;;1.67;;
73951;SDS011;62304;47.662;18.324;2023-10-09T11:52:23;6.62;;;1.62;;
73951;SDS011;62304;47.662;18.324;2023-10-09T11:55:38;8.23;;;1.77;;
73951;SDS011;62304;47.662;18.324;2023-10-09T11:58:41;4.20;;;1.37;;
73951;SDS011;62304;47.662;18.324;2023-10-09T12:01:47;6.67;;;1.60;;
73951;SDS011;62304;47.662;18.324;2023-10-09T12:04:56;5.50;;;1.60;;
73951;SDS011;62304;47.662;18.324;2023-10-09T12:07:58;5.62;;;1.77;;
73951;SDS011;62304;47.662;18.324;2023-10-09T12:11:04;8.45;;;1.83;;
73951;SDS011;62304;47.662;18.324;2023-10-09T12:14:12;4.72;;;1.60;;
73951;SDS011;62304;47.662;18.324;2023-10-09T12:17:15;7.83;;;1.63;;
73951;SDS011;62304;47.662;18.324;2023-10-09T12:20:18;5.30;;;1.60;;
73951;SDS011;62304;47.662;18.324;2023-10-09T12:23:40;4.62;;;1.50;;
73951;SDS011;62304;47.662;18.324;2023-10-09T12:26:46;6.93;;;2.30;;
73951;SDS011;62304;47.662;18.324;2023-10-09T12:29:50;6.30;;;2.15;;
73951;SDS011;62304;47.662;18.324;2023-10-09T12:32:53;6.40;;;2.00;;
73951;SDS011;62304;47.662;18.324;2023-10-09T12:35:58;6.40;;;1.93;;
73951;SDS011;62304;47.662;18.324;2023-10-09T12:39:04;6.35;;;1.90;;
73951;SDS011;62304;47.662;18.324;2023-10-09T12:42:08;5.93;;;2.33;;
73951;SDS011;62304;47.662;18.324;2023-10-09T12:45:11;10.15;;;2.87;;
73951;SDS011;62304;47.662;18.324;2023-10-09T12:48:15;8.20;;;2.33;;
73951;SDS011;62304;47.662;18.324;2023-10-09T12:51:18;6.53;;;2.20;;
73951;SDS011;62304;47.662;18.324;2023-10-09T12:54:21;5.20;;;1.95;;
73951;SDS011;62304;47.662;18.324;2023-10-09T12:57:29;7.12;;;1.87;;
73951;SDS011;62304;47.662;18.324;2023-10-09T13:00:33;6.22;;;2.45;;
73951;SDS011;62304;47.662;18.324;2023-10-09T13:03:41;7.80;;;2.73;;
73951;SDS011;62304;47.662;18.324;2023-10-09T13:06:45;10.20;;;3.00;;
73951;SDS011;62304;47.662;18.324;2023-10-09T13:09:49;6.53;;;2.70;;
73951;SDS011;62304;47.662;18.324;2023-10-09T13:13:11;7.85;;;2.50;;
73951;SDS011;62304;47.662;18.324;2023-10-09T13:16:14;8.05;;;2.50;;
73951;SDS011;62304;47.662;18.324;2023-10-09T13:19:28;6.57;;;2.47;;
73951;SDS011;62304;47.662;18.324;2023-10-09T13:22:31;5.63;;;2.20;;
73951;SDS011;62304;47.662;18.324;2023-10-09T13:25:34;6.90;;;2.30;;
73951;SDS011;62304;47.662;18.324;2023-10-09T13:28:42;6.93;;;2.87;;
73951;SDS011;62304;47.662;18.324;2023-10-09T13:31:48;8.05;;;3.30;;
73951;SDS011;62304;47.662;18.324;2023-10-09T13:34:55;6.50;;;2.37;;
73951;SDS011;62304;47.662;18.324;2023-10-09T13:37:58;10.67;;;3.17;;
73951;SDS011;62304;47.662;18.324;2023-10-09T13:41:01;8.30;;;2.70;;
73951;SDS011;62304;47.662;18.324;2023-10-09T13:44:07;11.63;;;3.80;;
73951;SDS011;62304;47.662;18.324;2023-10-09T13:47:09;9.75;;;2.90;;
73951;SDS011;62304;47.662;18.324;2023-10-09T13:50:25;11.13;;;3.80;;
73951;SDS011;62304;47.662;18.324;2023-10-09T13:53:35;19.03;;;9.63;;
73951;SDS011;62304;47.662;18.324;2023-10-09T13:56:38;11.75;;;3.85;;
73951;SDS011;62304;47.662;18.324;2023-10-09T13:59:42;7.80;;;2.92;;
73951;SDS011;62304;47.662;18.324;2023-10-09T14:02:55;8.57;;;3.20;;
73951;SDS011;62304;47.662;18.324;2023-10-09T14:05:58;8.97;;;3.33;;
73951;SDS011;62304;47.662;18.324;2023-10-09T14:09:12;9.20;;;3.13;;
73951;SDS011;62304;47.662;18.324;2023-10-09T14:12:31;11.75;;;3.70;;
73951;SDS011;62304;47.662;18.324;2023-10-09T14:15:34;10.98;;;4.20;;
73951;SDS011;62304;47.662;18.324;2023-10-09T14:18:43;14.68;;;4.55;;
73951;SDS011;62304;47.662;18.324;2023-10-09T14:21:46;10.70;;;3.47;;
73951;SDS011;62304;47.662;18.324;2023-10-09T14:24:53;13.47;;;4.57;;
73951;SDS011;62304;47.662;18.324;2023-10-09T14:28:00;14.00;;;4.55;;
73951;SDS011;62304;47.662;18.324;2023-10-09T14:31:03;14.45;;;5.32;;
73951;SDS011;62304;47.662;18.324;2023-10-09T14:34:08;16.33;;;5.97;;
73951;SDS011;62304;47.662;18.324;2023-10-09T14:37:12;15.50;;;7.30;;
73951;SDS011;62304;47.662;18.324;2023-10-09T14:40:17;20.13;;;8.77;;
73951;SDS011;62304;47.662;18.324;2023-10-09T14:43:32;14.82;;;6.15;;
73951;SDS011;62304;47.662;18.324;2023-10-09T14:46:36;14.77;;;5.70;;
73951;SDS011;62304;47.662;18.324;2023-10-09T14:49:40;15.13;;;6.00;;
73951;SDS011;62304;47.662;18.324;2023-10-09T14:52:49;14.87;;;5.67;;
73951;SDS011;62304;47.662;18.324;2023-10-09T14:55:54;15.43;;;6.10;;
73951;SDS011;62304;47.662;18.324;2023-10-09T14:59:11;12.95;;;5.15;;
73951;SDS011;62304;47.662;18.324;2023-10-09T15:02:15;13.80;;;5.03;;
73951;SDS011;62304;47.662;18.324;2023-10-09T15:05:19;14.15;;;5.53;;
73951;SDS011;62304;47.662;18.324;2023-10-09T15:08:27;15.23;;;5.13;;
73951;SDS011;62304;47.662;18.324;2023-10-09T15:11:32;13.90;;;4.70;;
73951;SDS011;62304;47.662;18.324;2023-10-09T15:14:35;17.30;;;6.37;;
73951;SDS011;62304;47.662;18.324;2023-10-09T15:17:40;16.73;;;7.28;;
73951;SDS011;62304;47.662;18.324;2023-10-09T15:20:49;19.70;;;8.52;;
73951;SDS011;62304;47.662;18.324;2023-10-09T15:23:54;16.90;;;7.67;;
73951;SDS011;62304;47.662;18.324;2023-10-09T15:26:58;23.20;;;7.40;;
73951;SDS011;62304;47.662;18.324;2023-10-09T15:30:02;19.05;;;7.03;;
73951;SDS011;62304;47.662;18.324;2023-10-09T15:33:05;17.52;;;6.57;;
73951;SDS011;62304;47.662;18.324;2023-10-09T15:36:10;16.25;;;6.53;;
73951;SDS011;62304;47.662;18.324;2023-10-09T15:39:19;16.23;;;6.50;;
73951;SDS011;62304;47.662;18.324;2023-10-09T15:42:24;17.10;;;8.37;;
73951;SDS011;62304;47.662;18.324;2023-10-09T15:45:28;19.62;;;9.20;;
73951;SDS011;62304;47.662;18.324;2023-10-09T15:48:32;18.23;;;9.20;;
73951;SDS011;62304;47.662;18.324;2023-10-09T15:51:35;19.35;;;7.62;;
73951;SDS011;62304;47.662;18.324;2023-10-09T15:54:39;14.73;;;6.67;;
73951;SDS011;62304;47.662;18.324;2023-10-09T15:57:46;15.60;;;6.83;;
73951;SDS011;62304;47.662;18.324;2023-10-09T16:00:52;18.55;;;8.00;;
73951;SDS011;62304;47.662;18.324;2023-10-09T16:03:56;19.67;;;7.80;;
73951;SDS011;62304;47.662;18.324;2023-10-09T16:07:00;26.77;;;12.32;;
73951;SDS011;62304;47.662;18.324;2023-10-09T16:10:04;40.63;;;18.60;;
73951;SDS011;62304;47.662;18.324;2023-10-09T16:13:11;53.17;;;21.23;;
73951;SDS011;62304;47.662;18.324;2023-10-09T16:16:28;62.38;;;21.25;;
73951;SDS011;62304;47.662;18.324;2023-10-09T16:19:32;43.67;;;16.60;;
73951;SDS011;62304;47.662;18.324;2023-10-09T16:22:40;49.03;;;15.23;;
73951;SDS011;62304;47.662;18.324;2023-10-09T16:25:43;31.63;;;12.80;;
73951;SDS011;62304;47.662;18.324;2023-10-09T16:28:48;33.43;;;12.13;;
73951;SDS011;62304;47.662;18.324;2023-10-09T16:31:52;26.65;;;10.65;;
73951;SDS011;62304;47.662;18.324;2023-10-09T16:34:57;24.83;;;9.27;;
73951;SDS011;62304;47.662;18.324;2023-10-09T16:38:03;19.87;;;8.70;;
73951;SDS011;62304;47.662;18.324;2023-10-09T16:41:15;20.93;;;9.03;;
73951;SDS011;62304;47.662;18.324;2023-10-09T16:44:19;21.67;;;9.30;;
73951;SDS011;62304;47.662;18.324;2023-10-09T16:47:22;18.02;;;7.80;;
73951;SDS011;62304;47.662;18.324;2023-10-09T16:50:26;18.50;;;8.25;;
73951;SDS011;62304;47.662;18.324;2023-10-09T16:53:31;18.95;;;8.90;;
73951;SDS011;62304;47.662;18.324;2023-10-09T16:56:39;24.50;;;9.47;;
73951;SDS011;62304;47.662;18.324;2023-10-09T16:59:45;34.43;;;21.67;;
73951;SDS011;62304;47.662;18.324;2023-10-09T17:02:51;36.50;;;16.27;;
73951;SDS011;62304;47.662;18.324;2023-10-09T17:05:57;42.13;;;18.70;;
73951;SDS011;62304;47.662;18.324;2023-10-09T17:09:02;49.83;;;20.33;;
73951;SDS011;62304;47.662;18.324;2023-10-09T17:12:09;41.03;;;19.63;;
73951;SDS011;62304;47.662;18.324;2023-10-09T17:15:15;39.77;;;17.90;;
73951;SDS011;62304;47.662;18.324;2023-10-09T17:18:22;39.00;;;18.05;;
73951;SDS011;62304;47.662;18.324;2023-10-09T17:21:27;34.92;;;16.05;;
73951;SDS011;62304;47.662;18.324;2023-10-09T17:24:39;24.10;;;11.40;;
73951;SDS011;62304;47.662;18.324;2023-10-09T17:27:47;20.10;;;10.70;;
73951;SDS011;62304;47.662;18.324;2023-10-09T17:30:58;24.80;;;10.87;;
73951;SDS011;62304;47.662;18.324;2023-10-09T17:34:03;27.02;;;11.65;;
73951;SDS011;62304;47.662;18.324;2023-10-09T17:37:11;28.42;;;11.43;;
73951;SDS011;62304;47.662;18.324;2023-10-09T17:40:15;25.15;;;11.52;;
73951;SDS011;62304;47.662;18.324;2023-10-09T17:43:22;29.07;;;12.23;;
73951;SDS011;62304;47.662;18.324;2023-10-09T17:46:28;28.23;;;11.63;;
73951;SDS011;62304;47.662;18.324;2023-10-09T17:49:33;25.52;;;10.90;;
73951;SDS011;62304;47.662;18.324;2023-10-09T17:52:40;25.70;;;11.57;;
73951;SDS011;62304;47.662;18.324;2023-10-09T17:55:45;26.42;;;10.50;;
73951;SDS011;62304;47.662;18.324;2023-10-09T17:58:51;29.47;;;11.37;;
73951;SDS011;62304;47.662;18.324;2023-10-09T18:01:56;24.23;;;10.53;;
73951;SDS011;62304;47.662;18.324;2023-10-09T18:05:04;20.48;;;10.02;;
73951;SDS011;62304;47.662;18.324;2023-10-09T18:08:12;22.60;;;10.55;;
73951;SDS011;62304;47.662;18.324;2023-10-09T18:11:21;22.70;;;9.82;;
73951;SDS011;62304;47.662;18.324;2023-10-09T18:14:26;25.27;;;10.67;;
73951;SDS011;62304;47.662;18.324;2023-10-09T18:17:33;23.47;;;10.43;;
73951;SDS011;62304;47.662;18.324;2023-10-09T18:20:48;25.58;;;11.75;;
73951;SDS011;62304;47.662;18.324;2023-10-09T18:23:56;27.75;;;12.95;;
73951;SDS011;62304;47.662;18.324;2023-10-09T18:27:01;29.08;;;13.43;;
73951;SDS011;62304;47.662;18.324;2023-10-09T18:30:06;32.67;;;13.53;;
73951;SDS011;62304;47.662;18.324;2023-10-09T18:33:10;28.47;;;13.77;;
73951;SDS011;62304;47.662;18.324;2023-10-09T18:36:15;28.35;;;13.18;;
73951;SDS011;62304;47.662;18.324;2023-10-09T18:39:21;22.85;;;10.07;;
73951;SDS011;62304;47.662;18.324;2023-10-09T18:42:26;26.17;;;12.32;;